Time;durP1;ratioP1;P1;durP2;ratioP2;P2;SDS_P1;SDS_P2;PMS_P1;PMS_P2;Temp;Humidity;BMP_temperature;BMP_pressure;BME280_temperature;BME280_humidity;BME280_pressure;Samples;Min_cycle;Max_cycle;Signal;HPM_P1;HPM_P2
2022/12/28 00:00:06;;;;;;;44.60;9.73;;;20.20;72.70;;;;;;5070171;28;20142;-66
2022/12/28 00:02:33;;;;;;;78.95;11.45;;;20.20;72.90;;;;;;5075052;28;20061;-67
2022/12/28 00:04:59;;;;;;;73.22;12.32;;;20.10;73.20;;;;;;5068584;28;20081;-68
2022/12/28 00:07:26;;;;;;;43.08;10.50;;;20.10;73.10;;;;;;5071979;28;20065;-68
2022/12/28 00:09:52;;;;;;;49.78;10.20;;;20.10;73.20;;;;;;5073161;28;20119;-67
2022/12/28 00:12:18;;;;;;;37.72;10.55;;;20.00;73.40;;;;;;5066448;28;20081;-65
2022/12/28 00:14:45;;;;;;;35.35;10.38;;;19.90;73.80;;;;;;5071225;28;20125;-70
2022/12/28 00:17:11;;;;;;;45.85;10.55;;;19.90;74.20;;;;;;5073378;28;20081;-70
2022/12/28 00:19:38;;;;;;;87.50;12.07;;;19.90;74.60;;;;;;5070944;28;20085;-70
2022/12/28 00:22:04;;;;;;;53.90;11.00;;;19.90;74.80;;;;;;5071108;28;20080;-68
2022/12/28 00:24:30;;;;;;;76.75;11.65;;;19.80;75.40;;;;;;5071289;28;20088;-67
2022/12/28 00:26:57;;;;;;;59.13;10.98;;;19.80;76.80;;;;;;5074620;28;20073;-68
2022/12/28 00:29:23;;;;;;;51.78;10.43;;;19.80;76.00;;;;;;5070854;28;20080;-67
2022/12/28 00:31:50;;;;;;;72.50;11.88;;;19.70;76.40;;;;;;5072910;28;20077;-66
2022/12/28 00:34:16;;;;;;;52.67;11.75;;;19.60;76.70;;;;;;5066537;28;20143;-69
2022/12/28 00:36:42;;;;;;;69.07;11.63;;;19.60;76.30;;;;;;5069872;28;20566;-67
2022/12/28 00:39:10;;;;;;;52.50;12.35;;;19.50;76.50;;;;;;5072035;28;20077;-72
2022/12/28 00:41:36;;;;;;;50.83;12.95;;;19.50;76.50;;;;;;5062928;28;20089;-71
2022/12/28 00:44:03;;;;;;;62.63;13.02;;;19.50;76.80;;;;;;5072496;28;20077;-68
2022/12/28 00:46:29;;;;;;;64.25;12.85;;;19.50;77.40;;;;;;5073556;28;20073;-67
2022/12/28 00:48:55;;;;;;;64.80;12.57;;;19.50;77.20;;;;;;5075019;28;20560;-70
2022/12/28 00:51:22;;;;;;;66.65;11.63;;;19.50;77.30;;;;;;5079870;28;20096;-71
2022/12/28 00:53:48;;;;;;;44.47;11.85;;;19.50;77.30;;;;;;5079222;28;20461;-69
2022/12/28 00:56:19;;;;;;;53.20;12.20;;;19.40;78.00;;;;;;5076480;28;20080;-69
2022/12/28 00:58:46;;;;;;;70.50;13.13;;;19.40;78.30;;;;;;5076915;28;20081;-70
2022/12/28 01:01:21;;;;;;;48.70;12.25;;;19.40;79.00;;;;;;5074576;28;20089;-67
2022/12/28 01:03:48;;;;;;;62.60;12.07;;;19.30;78.70;;;;;;5073156;28;20080;-66
2022/12/28 01:06:16;;;;;;;58.80;10.65;;;19.30;79.20;;;;;;5080128;28;20452;-69
2022/12/28 01:08:43;;;;;;;39.70;8.63;;;19.30;79.30;;;;;;5078793;28;20071;-68
2022/12/28 01:11:11;;;;;;;57.72;10.15;;;19.30;79.70;;;;;;5074021;28;20081;-68
2022/12/28 01:13:38;;;;;;;60.72;10.43;;;19.30;79.70;;;;;;5078714;28;20537;-69
2022/12/28 01:16:22;;;;;;;51.40;11.35;;;19.40;79.80;;;;;;5070257;28;20163;-67
2022/12/28 01:18:52;;;;;;;51.33;10.95;;;19.40;80.00;;;;;;5076977;28;20070;-68
2022/12/28 01:21:21;;;;;;;47.00;11.30;;;19.40;80.10;;;;;;5076771;28;20164;-69
2022/12/28 01:23:48;;;;;;;59.72;10.55;;;19.40;80.30;;;;;;5080097;28;20084;-68
2022/12/28 01:26:16;;;;;;;40.00;10.25;;;19.40;80.50;;;;;;5071526;28;20517;-69
2022/12/28 01:28:42;;;;;;;48.90;12.25;;;19.40;80.30;;;;;;5073225;28;20085;-68
2022/12/28 01:31:14;;;;;;;42.53;17.02;;;19.40;80.40;;;;;;5075532;28;20084;-67
2022/12/28 01:33:41;;;;;;;42.28;12.85;;;19.40;80.60;;;;;;5067154;28;20089;-66
2022/12/28 01:36:22;;;;;;;40.85;11.07;;;19.40;80.60;;;;;;5075592;28;20069;-68
2022/12/28 01:38:56;;;;;;;60.35;12.00;;;19.40;80.80;;;;;;5069177;28;20454;-70
2022/12/28 01:41:24;;;;;;;49.90;11.80;;;19.30;81.00;;;;;;5077289;28;20216;-70
2022/12/28 01:43:53;;;;;;;43.60;10.73;;;19.40;81.10;;;;;;5082039;28;20069;-70
2022/12/28 01:46:24;;;;;;;47.55;9.18;;;19.30;81.20;;;;;;5080610;28;20060;-69
2022/12/28 01:49:13;;;;;;;43.50;11.50;;;19.30;81.40;;;;;;5076084;28;20092;-71
2022/12/28 01:51:52;;;;;;;54.38;12.00;;;19.20;81.80;;;;;;5083165;28;20155;-70
2022/12/28 01:54:20;;;;;;;56.00;14.07;;;19.20;81.80;;;;;;5071385;28;20088;-71
2022/12/28 01:56:47;;;;;;;49.70;12.65;;;19.20;81.40;;;;;;5080169;28;20450;-71
2022/12/28 01:59:16;;;;;;;53.25;13.90;;;19.20;81.10;;;;;;5075727;28;20152;-69
2022/12/28 02:01:43;;;;;;;54.40;11.90;;;19.20;81.10;;;;;;5077552;28;20092;-70
2022/12/28 02:04:10;;;;;;;42.40;11.45;;;19.20;81.30;;;;;;5081175;28;20089;-68
2022/12/28 02:06:36;;;;;;;53.30;13.57;;;19.10;81.20;;;;;;5073265;28;20099;-68
2022/12/28 02:09:11;;;;;;;49.60;13.20;;;19.10;81.40;;;;;;5081866;28;20125;-70
2022/12/28 02:11:37;;;;;;;53.47;12.05;;;19.10;81.20;;;;;;5083957;28;20083;-69
2022/12/28 02:14:05;;;;;;;49.70;12.07;;;19.00;80.80;;;;;;5082249;28;20160;-69
2022/12/28 02:16:31;;;;;;;53.75;12.68;;;19.00;80.40;;;;;;5075806;28;20123;-69
2022/12/28 02:18:58;;;;;;;40.53;12.05;;;19.10;80.10;;;;;;5079021;28;20499;-72
2022/12/28 02:21:43;;;;;;;34.00;11.52;;;19.00;80.20;;;;;;5083967;28;20114;-69
2022/12/28 02:24:33;;;;;;;44.15;12.48;;;19.00;80.00;;;;;;5081495;28;20075;-70
2022/12/28 02:27:18;;;;;;;52.35;11.65;;;19.00;79.50;;;;;;5077527;28;20118;-69
2022/12/28 02:29:52;;;;;;;42.63;11.32;;;19.00;79.10;;;;;;5075321;28;20163;-71
2022/12/28 02:32:22;;;;;;;40.58;12.63;;;19.00;78.70;;;;;;5080555;28;20198;-70
2022/12/28 02:35:00;;;;;;;50.50;13.23;;;19.00;77.40;;;;;;5079469;28;20434;-70
2022/12/28 02:37:41;;;;;;;44.42;12.57;;;18.90;76.80;;;;;;5075213;28;20209;-73
2022/12/28 02:40:13;;;;;;;48.22;12.05;;;18.90;76.10;;;;;;5079246;28;20127;-70
2022/12/28 02:42:40;;;;;;;44.90;13.90;;;19.00;75.80;;;;;;5078458;28;20502;-68
2022/12/28 02:51:23;;;;;;;44.95;13.15;;;18.90;75.10;;;;;;5082893;28;20076;-68
2022/12/28 02:54:08;;;;;;;41.60;13.00;;;18.90;75.10;;;;;;5076624;28;20112;-70
2022/12/28 02:56:53;;;;;;;44.83;12.75;;;18.80;75.00;;;;;;5078350;28;20125;-71
2022/12/28 02:59:54;;;;;;;40.05;14.35;;;18.80;75.00;;;;;;5084835;28;20096;-74
2022/12/28 03:02:24;;;;;;;50.30;14.25;;;18.80;75.10;;;;;;5076956;28;20095;-70
2022/12/28 03:05:09;;;;;;;49.10;14.60;;;18.80;75.50;;;;;;5077382;28;20061;-71
2022/12/28 03:10:48;;;;;;;56.50;13.93;;;18.70;75.70;;;;;;5082445;28;20131;-71
2022/12/28 03:13:41;;;;;;;50.00;14.18;;;18.60;76.00;;;;;;5083132;28;20084;-70
2022/12/28 03:16:28;;;;;;;44.97;13.63;;;18.60;76.40;;;;;;5082715;28;20162;-74
2022/12/28 03:33:02;;;;;;;33.65;11.65;;;18.40;77.70;;;;;;5081144;28;20096;-68
2022/12/28 03:36:09;;;;;;;47.30;12.88;;;18.40;78.40;;;;;;5082535;28;20081;-71
2022/12/28 03:38:50;;;;;;;50.42;12.90;;;18.30;79.30;;;;;;5016109;28;20178;-71
2022/12/28 03:41:27;;;;;;;44.58;14.40;;;18.30;78.40;;;;;;5081849;28;20088;-70
2022/12/28 03:43:59;;;;;;;37.10;12.82;;;18.30;78.60;;;;;;5073382;28;20065;-70
2022/12/28 03:46:32;;;;;;;42.45;14.20;;;18.30;78.90;;;;;;5076516;28;20069;-73
2022/12/28 03:48:59;;;;;;;45.83;15.68;;;18.20;79.20;;;;;;5076293;28;20081;-72
2022/12/28 03:51:29;;;;;;;41.58;15.52;;;18.20;79.70;;;;;;5076796;28;20080;-72
2022/12/28 03:53:56;;;;;;;49.78;16.85;;;18.20;80.00;;;;;;5081107;28;20077;-72
2022/12/28 03:56:27;;;;;;;46.15;15.90;;;18.10;80.20;;;;;;5084236;28;20432;-71
2022/12/28 03:58:55;;;;;;;49.88;16.02;;;18.20;80.70;;;;;;5077539;28;20084;-73
2022/12/28 04:01:21;;;;;;;53.90;16.80;;;18.10;80.60;;;;;;5084843;28;20469;-71
2022/12/28 04:03:48;;;;;;;57.03;17.92;;;18.10;80.90;;;;;;5084236;28;20085;-71
2022/12/28 04:06:17;;;;;;;48.00;17.65;;;18.00;81.30;;;;;;5087271;28;20068;-70
2022/12/28 04:08:45;;;;;;;44.33;17.33;;;18.00;81.40;;;;;;5075944;28;20097;-73
2022/12/28 04:11:12;;;;;;;49.10;17.83;;;18.00;81.70;;;;;;5083089;28;20120;-69
2022/12/28 04:13:38;;;;;;;57.47;19.73;;;17.90;81.80;;;;;;5087431;28;20509;-71
2022/12/28 04:16:08;;;;;;;47.40;18.13;;;17.90;81.70;;;;;;5083083;28;20126;-70
2022/12/28 04:18:35;;;;;;;61.15;19.15;;;17.80;82.00;;;;;;5077838;28;20069;-71
2022/12/28 04:21:02;;;;;;;55.90;18.55;;;17.80;82.10;;;;;;5086856;28;20120;-70
2022/12/28 04:23:30;;;;;;;53.97;20.00;;;17.90;82.20;;;;;;5083910;28;20525;-69
2022/12/28 04:26:08;;;;;;;52.70;17.23;;;17.90;82.00;;;;;;5084801;28;20442;-69
2022/12/28 04:28:35;;;;;;;49.80;19.98;;;17.80;82.50;;;;;;5082242;28;20113;-71
2022/12/28 04:31:02;;;;;;;56.58;19.45;;;17.80;82.90;;;;;;5083852;28;20083;-69
2022/12/28 04:33:32;;;;;;;54.20;18.42;;;17.70;83.00;;;;;;5084544;28;20077;-69
2022/12/28 04:36:14;;;;;;;58.30;19.38;;;17.70;83.20;;;;;;5079486;28;20077;-71
2022/12/28 04:38:41;;;;;;;60.88;20.83;;;17.70;83.40;;;;;;5082659;28;20073;-71
2022/12/28 04:41:09;;;;;;;55.78;20.17;;;17.70;83.70;;;;;;5086266;28;20092;-69
2022/12/28 04:43:36;;;;;;;51.47;19.27;;;17.70;83.60;;;;;;5082307;28;20076;-69
2022/12/28 04:46:06;;;;;;;61.22;19.90;;;17.70;83.90;;;;;;5083860;28;20514;-69
2022/12/28 04:48:33;;;;;;;59.92;19.10;;;17.70;84.10;;;;;;5079929;28;20444;-71
2022/12/28 04:51:08;;;;;;;55.63;17.48;;;17.70;84.40;;;;;;5088016;28;20075;-69
2022/12/28 04:53:39;;;;;;;74.72;20.75;;;17.70;84.60;;;;;;5082219;28;20083;-70
2022/12/28 04:56:07;;;;;;;62.13;19.73;;;17.60;84.80;;;;;;5075327;28;20077;-70
2022/12/28 04:58:34;;;;;;;49.38;19.20;;;17.50;84.20;;;;;;5080635;28;20143;-70
2022/12/28 05:01:11;;;;;;;47.75;20.25;;;17.50;84.60;;;;;;5073767;28;20176;-68
2022/12/28 05:03:39;;;;;;;39.10;18.23;;;17.50;83.80;;;;;;5079317;28;20153;-69
2022/12/28 05:06:10;;;;;;;51.85;20.30;;;17.50;83.80;;;;;;5082035;28;20156;-68
2022/12/28 05:08:37;;;;;;;45.88;18.27;;;17.60;83.80;;;;;;5083676;28;20106;-71
2022/12/28 05:11:11;;;;;;;45.53;17.50;;;17.60;83.70;;;;;;5080058;28;20077;-73
2022/12/28 05:13:37;;;;;;;44.72;18.08;;;17.50;83.10;;;;;;5083906;28;20073;-68
2022/12/28 05:16:09;;;;;;;37.80;17.75;;;17.50;82.80;;;;;;5088613;28;20102;-70
2022/12/28 05:18:36;;;;;;;47.22;17.75;;;17.50;82.40;;;;;;5080028;28;20069;-68
2022/12/28 05:21:14;;;;;;;44.40;15.90;;;17.50;82.60;;;;;;5083664;28;20081;-70
2022/12/28 05:23:41;;;;;;;35.75;15.95;;;17.50;82.00;;;;;;5081131;28;20080;-70
2022/12/28 05:26:12;;;;;;;33.85;14.70;;;17.50;81.70;;;;;;5079280;28;20069;-68
2022/12/28 05:28:39;;;;;;;43.33;14.98;;;17.50;81.70;;;;;;5074050;28;20073;-70
2022/12/28 05:31:09;;;;;;;35.13;15.95;;;17.50;81.80;;;;;;5078727;28;20073;-71
2022/12/28 05:33:36;;;;;;;39.13;14.60;;;17.60;81.80;;;;;;5084037;28;20572;-69
2022/12/28 05:36:09;;;;;;;44.10;15.63;;;17.50;81.20;;;;;;5082769;28;20084;-69
2022/12/28 05:38:35;;;;;;;49.40;13.77;;;17.50;81.50;;;;;;5080797;28;20073;-70
2022/12/28 05:41:08;;;;;;;25.20;12.13;;;17.50;81.60;;;;;;5078019;28;20133;-70
2022/12/28 05:43:35;;;;;;;34.25;13.70;;;17.50;82.50;;;;;;5075665;28;20148;-70
2022/12/28 05:46:08;;;;;;;26.15;11.55;;;17.50;82.00;;;;;;5078177;28;20080;-70
2022/12/28 05:48:36;;;;;;;42.63;12.77;;;17.50;82.00;;;;;;5079255;28;21540;-69
2022/12/28 05:51:05;;;;;;;34.88;11.95;;;17.50;81.90;;;;;;5081404;28;20110;-69
2022/12/28 05:53:32;;;;;;;29.02;12.23;;;17.60;82.20;;;;;;5081517;28;20491;-70
2022/12/28 05:56:09;;;;;;;41.38;15.70;;;17.50;82.50;;;;;;5084512;28;20530;-72
2022/12/28 05:58:35;;;;;;;55.55;17.15;;;17.50;82.50;;;;;;5082409;28;20084;-71
2022/12/28 06:01:09;;;;;;;49.65;17.70;;;17.50;82.60;;;;;;5081328;28;20092;-68
2022/12/28 06:03:37;;;;;;;53.47;17.90;;;17.40;84.30;;;;;;5077079;28;20100;-69
2022/12/28 06:06:09;;;;;;;59.45;21.42;;;17.40;84.40;;;;;;5075034;28;20069;-74
2022/12/28 06:08:36;;;;;;;52.00;21.05;;;17.40;84.90;;;;;;5083638;28;20076;-72
2022/12/28 06:11:04;;;;;;;58.53;20.35;;;17.40;84.90;;;;;;5082184;28;20110;-67
2022/12/28 06:13:32;;;;;;;59.95;20.27;;;17.40;85.30;;;;;;5077683;28;20073;-71
2022/12/28 06:16:03;;;;;;;49.80;21.95;;;17.30;85.30;;;;;;5078266;28;20218;-68
2022/12/28 06:18:29;;;;;;;64.28;23.05;;;17.40;85.60;;;;;;5081901;28;20576;-70
2022/12/28 06:21:04;;;;;;;61.90;23.80;;;17.30;85.80;;;;;;5078389;28;20085;-70
2022/12/28 06:23:30;;;;;;;66.78;22.35;;;17.40;86.30;;;;;;5082039;28;20103;-69
2022/12/28 06:26:02;;;;;;;50.28;22.88;;;17.30;86.30;;;;;;5079574;28;20075;-67
2022/12/28 06:28:28;;;;;;;56.42;22.45;;;17.40;85.80;;;;;;5075767;28;20069;-73
2022/12/28 06:31:08;;;;;;;67.88;25.20;;;17.30;85.80;;;;;;5079411;28;20080;-67
2022/12/28 06:33:34;;;;;;;59.50;24.85;;;17.30;85.50;;;;;;5078224;28;20119;-71
2022/12/28 06:36:02;;;;;;;59.05;23.55;;;17.30;85.30;;;;;;5082091;28;20073;-71
2022/12/28 06:38:31;;;;;;;60.25;23.10;;;17.30;84.40;;;;;;5081980;28;20077;-68
2022/12/28 06:41:06;;;;;;;50.20;20.45;;;17.30;84.00;;;;;;5076158;28;20554;-69
2022/12/28 06:43:34;;;;;;;54.47;19.15;;;17.40;83.50;;;;;;5082778;28;20528;-69
2022/12/28 06:46:00;;;;;;;50.45;18.52;;;17.40;82.90;;;;;;5080062;28;20077;-72
2022/12/28 06:48:28;;;;;;;50.97;18.35;;;17.40;82.40;;;;;;5078349;28;20092;-70
2022/12/28 06:51:03;;;;;;;47.28;18.05;;;17.40;82.50;;;;;;5076550;28;20084;-69
2022/12/28 06:53:33;;;;;;;44.85;16.85;;;17.40;82.80;;;;;;5079755;28;20163;-70
2022/12/28 06:56:01;;;;;;;43.20;17.83;;;17.30;83.00;;;;;;5077810;28;20072;-69
2022/12/28 06:58:29;;;;;;;45.65;18.23;;;17.40;83.10;;;;;;5080520;28;20116;-70
2022/12/28 07:00:56;;;;;;;67.25;19.77;;;17.40;83.10;;;;;;5075038;28;20081;-68
2022/12/28 07:03:23;;;;;;;73.68;21.38;;;17.40;83.10;;;;;;5080819;28;20558;-70
2022/12/28 07:05:50;;;;;;;61.90;20.60;;;17.30;83.20;;;;;;5078479;28;20538;-67
2022/12/28 07:08:17;;;;;;;64.43;23.27;;;17.30;83.50;;;;;;5083098;28;20075;-69
2022/12/28 07:10:44;;;;;;;73.38;22.38;;;17.30;83.40;;;;;;5078669;28;20069;-67
2022/12/28 07:13:10;;;;;;;56.65;19.23;;;17.30;83.60;;;;;;5074793;28;20666;-71
2022/12/28 07:15:37;;;;;;;47.90;18.85;;;17.30;83.80;;;;;;5078225;28;20083;-68
2022/12/28 07:18:03;;;;;;;57.97;18.00;;;17.30;84.10;;;;;;5076197;28;20082;-68
2022/12/28 07:20:30;;;;;;;59.83;17.55;;;17.20;84.60;;;;;;5071327;28;20108;-68
2022/12/28 07:22:56;;;;;;;51.97;18.52;;;17.20;85.10;;;;;;5075726;28;20440;-68
2022/12/28 07:25:22;;;;;;;66.20;17.55;;;17.20;86.00;;;;;;5077571;28;20069;-70
2022/12/28 07:27:49;;;;;;;51.63;17.83;;;17.30;85.90;;;;;;5080663;28;20069;-67
2022/12/28 07:30:15;;;;;;;48.45;16.83;;;17.20;85.60;;;;;;5077106;28;20107;-67
2022/12/28 07:32:42;;;;;;;46.70;15.32;;;17.20;86.80;;;;;;5077627;28;20138;-70
2022/12/28 07:35:09;;;;;;;33.83;13.80;;;17.20;87.40;;;;;;5081757;28;20092;-68
2022/12/28 07:37:35;;;;;;;41.20;14.73;;;17.20;88.20;;;;;;5075514;28;20122;-68
2022/12/28 07:40:01;;;;;;;37.25;13.52;;;17.30;88.20;;;;;;5070688;28;20154;-69
2022/12/28 07:42:29;;;;;;;45.42;13.57;;;17.40;88.70;;;;;;5073408;28;20161;-68
2022/12/28 07:44:55;;;;;;;39.20;12.57;;;17.30;89.30;;;;;;5077985;28;20510;-69
2022/12/28 07:47:21;;;;;;;36.17;12.88;;;17.30;89.70;;;;;;5071441;28;20168;-70
2022/12/28 07:49:48;;;;;;;29.95;12.38;;;17.40;89.90;;;;;;5076741;28;20079;-68
2022/12/28 07:52:14;;;;;;;38.05;14.57;;;17.40;90.00;;;;;;5078269;28;20069;-70
2022/12/28 07:54:41;;;;;;;38.53;13.52;;;17.40;90.00;;;;;;5076342;28;20068;-68
2022/12/28 07:57:07;;;;;;;40.33;12.43;;;17.50;90.00;;;;;;5074560;28;20187;-68
2022/12/28 07:59:33;;;;;;;32.97;13.30;;;17.40;90.00;;;;;;5072545;28;20073;-68
2022/12/28 08:02:00;;;;;;;40.22;14.95;;;17.40;90.10;;;;;;5075857;28;20092;-67
2022/12/28 08:04:27;;;;;;;36.95;13.77;;;17.40;90.10;;;;;;5074599;28;20069;-69
2022/12/28 08:06:53;;;;;;;37.55;15.93;;;17.40;90.30;;;;;;5076538;28;20080;-69
2022/12/28 08:09:20;;;;;;;31.27;14.48;;;17.40;90.20;;;;;;5074501;28;20081;-67
2022/12/28 08:11:48;;;;;;;35.90;14.13;;;17.40;90.30;;;;;;5072494;28;21270;-67
2022/12/28 08:14:15;;;;;;;37.38;15.80;;;17.30;90.90;;;;;;5072679;28;20073;-69
2022/12/28 08:16:43;;;;;;;38.97;16.38;;;17.40;91.70;;;;;;5074499;28;20081;-68
2022/12/28 08:19:10;;;;;;;47.28;18.17;;;17.30;92.00;;;;;;5077317;28;20104;-68
2022/12/28 08:21:40;;;;;;;34.20;17.10;;;17.20;92.40;;;;;;5074789;28;20092;-67
2022/12/28 08:24:08;;;;;;;41.40;18.45;;;17.20;93.10;;;;;;5076175;28;20110;-68
2022/12/28 08:26:37;;;;;;;48.42;19.02;;;17.20;93.30;;;;;;5070626;28;20069;-66
2022/12/28 08:29:07;;;;;;;37.08;16.52;;;17.20;93.80;;;;;;5072004;28;20072;-68
2022/12/28 08:31:36;;;;;;;36.05;16.83;;;17.20;94.10;;;;;;5082272;28;20142;-68
2022/12/28 08:34:05;;;;;;;38.78;17.67;;;17.20;94.60;;;;;;5069021;28;21499;-68
2022/12/28 08:36:31;;;;;;;41.38;16.17;;;17.10;95.00;;;;;;5070323;28;20093;-69
2022/12/28 08:38:59;;;;;;;38.20;17.05;;;17.10;95.50;;;;;;5075306;28;20073;-70
2022/12/28 08:41:27;;;;;;;31.50;14.85;;;17.10;95.80;;;;;;5078139;28;20084;-69
2022/12/28 08:43:54;;;;;;;34.97;15.40;;;17.10;96.20;;;;;;5078218;28;20069;-70
2022/12/28 08:46:26;;;;;;;34.92;13.52;;;17.10;96.90;;;;;;5077944;28;20076;-66
2022/12/28 08:48:55;;;;;;;34.53;14.93;;;17.00;96.90;;;;;;5074887;28;20085;-66
2022/12/28 08:51:30;;;;;;;35.92;16.20;;;17.00;97.10;;;;;;5078680;28;20126;-67
2022/12/28 08:53:57;;;;;;;36.85;14.55;;;16.90;97.20;;;;;;5079014;28;20081;-69
2022/12/28 08:56:29;;;;;;;35.20;16.35;;;16.90;97.30;;;;;;5081195;28;20069;-68
2022/12/28 08:58:57;;;;;;;38.92;24.45;;;16.90;97.70;;;;;;5075904;28;20142;-68
2022/12/28 09:01:26;;;;;;;48.97;18.48;;;16.90;98.30;;;;;;5080594;28;20163;-68
2022/12/28 09:03:55;;;;;;;40.30;18.42;;;16.90;98.30;;;;;;5076097;28;20061;-67
2022/12/28 09:06:24;;;;;;;26.75;15.35;;;16.90;98.80;;;;;;5076409;28;20066;-67
2022/12/28 09:08:53;;;;;;;33.92;15.43;;;16.90;99.00;;;;;;5080476;28;20155;-68
2022/12/28 09:11:22;;;;;;;39.25;17.45;;;16.80;98.90;;;;;;5078297;28;20530;-66
2022/12/28 09:13:49;;;;;;;35.80;16.83;;;16.80;98.80;;;;;;5077568;28;20084;-68
2022/12/28 09:16:24;;;;;;;36.08;14.43;;;16.80;98.80;;;;;;5082856;28;20245;-68
2022/12/28 09:18:56;;;;;;;25.52;12.63;;;16.80;99.00;;;;;;5073257;28;20418;-68
2022/12/28 09:21:26;;;;;;;27.48;12.65;;;16.80;98.90;;;;;;5075121;28;20081;-69
2022/12/28 09:23:54;;;;;;;33.13;13.23;;;16.80;99.10;;;;;;5079713;28;20064;-67
2022/12/28 09:26:26;;;;;;;20.27;12.10;;;16.70;99.40;;;;;;5077322;28;20116;-69
2022/12/28 09:28:55;;;;;;;27.30;10.82;;;16.70;99.70;;;;;;5075609;28;20069;-68
2022/12/28 09:31:23;;;;;;;21.52;9.60;;;16.80;99.90;;;;;;5079678;28;20073;-67
2022/12/28 09:34:00;;;;;;;25.60;9.82;;;16.70;99.90;;;;;;5074814;28;20132;-69
2022/12/28 09:36:33;;;;;;;22.20;9.38;;;16.80;99.90;;;;;;5078257;28;20079;-70
2022/12/28 09:39:23;;;;;;;19.33;8.88;;;16.70;99.90;;;;;;5074123;28;20077;-68
2022/12/28 09:41:55;;;;;;;21.70;9.63;;;16.70;99.90;;;;;;5081369;28;20088;-68
2022/12/28 09:44:43;;;;;;;22.88;11.18;;;16.70;99.90;;;;;;5078578;28;20065;-69
2022/12/28 09:47:21;;;;;;;21.13;8.75;;;16.80;99.90;;;;;;5078276;28;20123;-68
2022/12/28 09:50:16;;;;;;;27.15;10.75;;;16.80;99.90;;;;;;5075314;28;20147;-68
2022/12/28 09:53:20;;;;;;;31.35;9.25;;;16.60;99.90;;;;;;5081118;28;20061;-66
2022/12/28 09:56:02;;;;;;;16.00;8.07;;;16.40;99.90;;;;;;5082624;28;20076;-65
2022/12/28 09:58:35;;;;;;;21.92;8.38;;;16.40;99.90;;;;;;5077494;28;20116;-67
2022/12/28 10:01:03;;;;;;;21.35;7.28;;;16.40;99.90;;;;;;5077936;28;20088;-69
2022/12/28 10:03:38;;;;;;;13.75;5.95;;;16.20;99.90;;;;;;5077812;28;20148;-66
2022/12/28 10:06:14;;;;;;;16.63;5.60;;;16.10;99.90;;;;;;5077326;28;20113;-66
2022/12/28 10:09:02;;;;;;;21.80;5.10;;;16.00;99.90;;;;;;5073770;28;20569;-66
2022/12/28 10:11:37;;;;;;;28.17;5.63;;;16.00;99.90;;;;;;5077104;28;20080;-69
2022/12/28 10:14:25;;;;;;;16.10;4.25;;;15.90;99.90;;;;;;5081013;28;20068;-69
2022/12/28 10:16:51;;;;;;;15.00;3.50;;;15.90;99.90;;;;;;5071584;28;20061;-70
2022/12/28 10:19:23;;;;;;;13.15;3.95;;;15.80;99.90;;;;;;5077528;28;20097;-71
2022/12/28 10:22:15;;;;;;;19.60;3.70;;;15.80;99.90;;;;;;5080853;28;20089;-69
2022/12/28 10:24:43;;;;;;;13.18;2.72;;;15.70;99.90;;;;;;5079040;28;20105;-69
2022/12/28 10:27:30;;;;;;;21.85;3.42;;;15.70;99.90;;;;;;5078182;28;20152;-70
2022/12/28 10:30:00;;;;;;;8.93;2.17;;;15.70;99.90;;;;;;5075983;28;20065;-67
2022/12/28 10:32:37;;;;;;;18.35;2.42;;;15.70;99.90;;;;;;5075923;28;20085;-70
2022/12/28 10:35:03;;;;;;;10.88;2.70;;;15.70;99.90;;;;;;5075041;28;20096;-69
2022/12/28 10:37:33;;;;;;;10.63;2.17;;;15.60;99.90;;;;;;5074218;28;20580;-70
2022/12/28 10:40:17;;;;;;;12.40;2.10;;;15.60;99.90;;;;;;5079343;28;20069;-71
2022/12/28 10:42:48;;;;;;;13.73;2.20;;;15.60;99.90;;;;;;5078539;28;20171;-67
2022/12/28 10:45:38;;;;;;;13.40;2.25;;;15.60;99.90;;;;;;5076353;28;20560;-69
2022/12/28 10:48:17;;;;;;;16.60;2.20;;;15.70;99.90;;;;;;5076305;28;20135;-69
2022/12/28 10:50:46;;;;;;;15.45;2.22;;;15.70;99.90;;;;;;5075607;28;20429;-69
2022/12/28 10:53:29;;;;;;;12.20;2.42;;;15.70;99.90;;;;;;5075658;28;20081;-68
2022/12/28 10:56:13;;;;;;;10.23;2.25;;;15.60;99.90;;;;;;5074730;28;20065;-73
2022/12/28 10:58:42;;;;;;;10.18;2.35;;;15.60;99.90;;;;;;5072426;28;20211;-69
2022/12/28 11:01:12;;;;;;;12.77;3.67;;;15.50;99.90;;;;;;5083602;28;20092;-71
2022/12/28 11:04:00;;;;;;;9.85;3.25;;;15.50;99.90;;;;;;5074496;28;20077;-71
2022/12/28 11:06:31;;;;;;;20.77;4.30;;;15.40;99.90;;;;;;5074534;28;20110;-70
2022/12/28 11:09:14;;;;;;;15.32;4.78;;;15.30;99.90;;;;;;5079530;28;20079;-72
2022/12/28 11:11:43;;;;;;;17.60;5.18;;;15.20;99.90;;;;;;5077084;28;20548;-70
2022/12/28 11:14:24;;;;;;;20.73;5.75;;;15.20;99.90;;;;;;5075067;28;20092;-69
2022/12/28 11:16:52;;;;;;;15.10;6.50;;;15.20;99.90;;;;;;5073332;28;20155;-71
2022/12/28 11:19:19;;;;;;;14.57;5.43;;;15.10;99.90;;;;;;5078103;28;20085;-71
2022/12/28 11:21:46;;;;;;;14.70;6.38;;;15.10;99.90;;;;;;5076746;28;20100;-70
2022/12/28 11:24:16;;;;;;;18.25;5.68;;;15.10;99.90;;;;;;5077528;28;20065;-74
2022/12/28 11:26:46;;;;;;;16.02;6.70;;;15.10;99.90;;;;;;5075836;28;20143;-70
2022/12/28 11:29:14;;;;;;;19.17;7.10;;;15.10;99.90;;;;;;5074578;28;20437;-71
2022/12/28 11:32:04;;;;;;;23.73;9.13;;;15.10;99.90;;;;;;5076240;28;20144;-71
2022/12/28 11:34:31;;;;;;;25.60;11.05;;;15.10;99.90;;;;;;5071300;28;20088;-71
2022/12/28 11:36:58;;;;;;;24.98;13.13;;;15.10;99.90;;;;;;5074655;28;20439;-69
2022/12/28 11:39:24;;;;;;;29.52;16.63;;;15.10;99.90;;;;;;5078524;28;20112;-72
2022/12/28 11:41:54;;;;;;;;;;;15.10;99.90;;;;;;5079343;28;20085;-71
2022/12/28 11:44:29;;;;;;;44.83;24.08;;;15.10;99.90;;;;;;5074400;28;19972;-70
2022/12/28 11:47:05;;;;;;;37.38;25.60;;;15.00;99.90;;;;;;5077570;28;20522;-71
2022/12/28 11:49:34;;;;;;;47.28;29.90;;;15.00;99.90;;;;;;5074267;28;20077;-71
2022/12/28 11:52:32;;;;;;;42.63;26.77;;;14.90;99.90;;;;;;5072506;28;20089;-71
2022/12/28 11:55:23;;;;;;;43.65;27.17;;;14.80;99.90;;;;;;5074562;28;20073;-72
2022/12/28 11:57:49;;;;;;;45.53;28.58;;;14.80;99.90;;;;;;5077022;28;20140;-69
2022/12/28 12:00:18;;;;;;;41.17;29.30;;;14.80;99.90;;;;;;5074725;28;20577;-71
2022/12/28 12:02:49;;;;;;;43.00;29.75;;;14.80;99.90;;;;;;5074193;28;20148;-69
2022/12/28 12:05:37;;;;;;;44.85;30.42;;;14.80;99.90;;;;;;5076929;28;20077;-70
2022/12/28 12:08:15;;;;;;;42.40;29.27;;;14.80;99.90;;;;;;5077148;28;20144;-71
2022/12/28 12:11:08;;;;;;;38.20;26.48;;;14.80;99.90;;;;;;5076383;28;20069;-70
2022/12/28 12:13:49;;;;;;;39.63;26.00;;;14.90;99.90;;;;;;5074824;28;20072;-68
2022/12/28 12:16:25;;;;;;;37.70;24.73;;;14.90;99.90;;;;;;5074348;28;20073;-69
2022/12/28 12:18:55;;;;;;;40.05;25.70;;;14.80;99.90;;;;;;5078995;28;20102;-70
2022/12/28 12:21:36;;;;;;;42.15;27.25;;;14.80;99.90;;;;;;5079308;28;20115;-71
2022/12/28 12:24:26;;;;;;;41.40;27.63;;;14.80;99.90;;;;;;5079381;28;20065;-72
2022/12/28 12:27:35;;;;;;;37.50;26.10;;;14.90;99.90;;;;;;5082448;28;20109;-72
2022/12/28 12:30:13;;;;;;;32.50;21.02;;;14.90;99.90;;;;;;5076092;28;20526;-69
2022/12/28 12:32:55;;;;;;;39.60;22.02;;;14.90;99.90;;;;;;5079803;28;20065;-68
2022/12/28 12:35:24;;;;;;;28.33;18.05;;;14.90;99.90;;;;;;5075280;28;20074;-72
2022/12/28 12:38:20;;;;;;;25.58;18.88;;;14.90;99.90;;;;;;5078749;28;20468;-70
2022/12/28 12:40:52;;;;;;;26.95;17.27;;;15.00;99.90;;;;;;5076667;28;20125;-71
2022/12/28 12:43:28;;;;;;;31.08;17.30;;;15.00;99.90;;;;;;5078457;28;20084;-72
2022/12/28 12:46:22;;;;;;;26.75;18.00;;;15.00;99.90;;;;;;5080685;28;20096;-74
2022/12/28 12:49:01;;;;;;;27.95;16.88;;;14.90;99.90;;;;;;5080939;28;20084;-72
2022/12/28 12:51:47;;;;;;;27.50;17.35;;;14.90;99.90;;;;;;5077260;28;20460;-70
2022/12/28 12:54:17;;;;;;;27.70;17.57;;;14.90;99.90;;;;;;5077932;28;20150;-70
2022/12/28 12:56:58;;;;;;;27.13;17.20;;;14.90;99.90;;;;;;5081391;28;20165;-70
2022/12/28 13:00:03;;;;;;;25.98;14.63;;;14.90;99.90;;;;;;5079718;28;20089;-72
2022/12/28 13:02:42;;;;;;;24.80;15.35;;;15.00;99.90;;;;;;5037245;28;20128;-69
2022/12/28 13:05:18;;;;;;;25.33;15.80;;;15.00;99.90;;;;;;5030633;28;20185;-72
2022/12/28 13:07:45;;;;;;;;;;;15.00;99.90;;;;;;5029954;28;20461;-70
2022/12/28 13:10:27;;;;;;;27.73;13.90;;;15.00;99.90;;;;;;5034384;28;19973;-70
2022/12/28 13:12:59;;;;;;;18.95;12.95;;;15.00;99.90;;;;;;5033679;28;20069;-69
2022/12/28 13:15:26;;;;;;;18.48;12.40;;;15.00;99.90;;;;;;5033457;28;20073;-71